Norway Center, South Dakota
Current Conditions -  °F | °C
As of 10:15 AM on Wednesday 22 Oct 2014 (Local Time) from KORC Reporting Station
Clear Clear  
Wind Chill: 61°   Ceiling: Unl
Heat Index: 61°   Visibility: 10mi
Dew Point: 45°   Wind: 22mph
Humidity: 55%   Direction: 180°S
Pressure: 30.04"   Gusts: 30mph
Location:  43.1282°N, 96.5674°W
Report Text: KORC 221515Z AUTO 18019G26KT 10SM CLR 16/07 A3004 RMK AO2
Loading
Personal Weather Stations






























Interactive Weather Map
Tropical Storm Tracking
New forecast layout! Learn more

10-Day Weather Forecast

Advertisements
Track Severe Weather on mobile